National Oceanic Atmosphere Administration National Weather Service Headquarters National Weather Service Headquarters
NOAA logo WFO Anchorage Scalable transition graphic NWS logo
Transition from title bar to navgation bar   Aviation Weather 19 AKDT 
blankspace Home   |   Mobile   |   Social Media   |   Mesonet   |   Surface Map   |   Radar   |   Submit Storm Reports =03 GMT 

LocalForecast by City, St or Zip Code

spacer

Forecasts/Products
  Public
  Forecast Discussion
    - With Glossary
  Aviation
  Marine
  Hydrology(RFC)
  Rivers & Lakes AHPS
  Ice Desk
  TV Weather
  Fire Weather
  Avalanche
  Travel 511
  Graphical
  xml logo RSS Feeds
  Marine FTPMail

spacer

Data
  Mesonet
  Model Graphics
  Local Model
  Observations
  Marine Obs
  Satellite/Radar
  Vent Factor
  Soaring Index
  Weather Links

spacer

Climate
  PAFC Climate
  Interactive Climate
  PAFC Records
  Local
  National
  More

spacer

Outreach
  About Us
  Community Outreach
  Kids' Page
  Tour/Speaker Request
  Weather Classroom
  Social Media

spacer

Reports
  COOP Observers
  Local Storm Reports
  Spotter Page
  Submit a Storm Report

spacer

Miscellaneous
  Archived Alaska Weather Stories
  Student Career Opportunities
  Research Papers

spacer

Print Friendly/
Low Bandwidth

  Public Forecasts
  Marine Forecasts

spacer

Contact Us
  mailto pafcweb

spacer

Facebook Follow the National Weather Service in Alaska on Twitter
USA.gov is the U.S. government's official web portal to all federal, state and local government web resources and services.


 ICAO ID:   AAWU Graphics

Internet access to TAFs and METAR observations is for planning purposes only. We can not guarantee the timeliness of internet products. Before flying please get a formal pilot briefing (1-800-992-7433) and ALWAYS file a Flight Plan!Pilot briefings are provided to licensed aircraft pilots, ONLY! Others may not use the above number to obtain weather information.

Check out the Key to TAFs and METARs for help with decoding the information.

A 12 hour summary of TAFs can be found here.

PAEN TAF
PAEN 252335Z 2600/2624  VRB03KT 6SM -RA OVC015
      TEMPO 2600/2604 2SM -RA BR BKN007
     FM260700 VRB04KT P6SM VCFG FEW005 SCT015
     FM262100 31006KT P6SM SCT015=


METAR PAEN 260253Z 04009KT 10SM SCT008 BKN010 OVC017 13/12 A2985 RMK AO2
     SLP109 60005 T01280117 51003=
SPECI PAEN 260251Z 05008KT 10SM SCT008 BKN010 OVC017 12/12 A2985 RMK
     AO2=
PAEN 260251Z 05008KT 10SM SCT008 BKN010 OVC017 12/12 A2985=
SPECI PAEN 260244Z 05010KT 10SM OVC010 12/11 A2985 RMK AO2 CIG
     007V014=
PAEN 260244Z 05010KT 10SM OVC010 12/11 A2985=
METAR PAEN 260153Z 05011KT 7SM BKN008 BKN017 OVC034 12/12 A2984 RMK AO2
     RAE31 SLP107 P0001 T01220117=
METAR PAEN 260153Z 05011KT 7SM BKN008 BKN017 OVC034 12/12 A2984=
METAR PAEN 260053Z 03009KT 3SM -RA BR BKN006 BKN018 OVC024 12/11
    A2984 RMK AO2 SLP106 P0004 T01170111=
METAR PAEN 260053Z 03009KT 3SM -RA BR BKN006 BKN018 OVC024 12/11
     A2984=
SPECI PAEN 252356Z 02012KT 3SM -RA BR BKN006 BKN018 OVC024 12/11 A2984
     RMK AO2 P0000=
PAEN 252356Z 02012KT 3SM -RA BR BKN006 BKN018 OVC024 12/11 A2984=
METAR PAEN 252353Z COR 02012KT 3SM -RA BR BKN0065 BKN018 OVC024 12/11
     A2983 RMK AO2 SLP104 P0006 60018 T01170111 10128 20117
     53008=
METAR PAEN 252353Z 02012KT 4SM -RA BR FEW005 BKN018 OVC024 12/11
     A2983=
PAEN 252342Z 01012KT 2SM -RA BR SCT007 BKN014 OVC020 12/11 A2983
     RMK AO2 P0005=
PAEN 252342Z 01012KT 2SM -RA BR SCT007 BKN014 OVC020 12/11 A2983=


National Weather Service
Anchorage Forecast Office
6930 Sand Lake Road
Anchorage, Ak 99502
(907) 266-5105 M-F/7-5pm
About Us
Career Opportunities
Glossary
Disclaimer
Privacy Policy
Credits
Alaska Weather Information Line:
1-800-472-0391